METAR AND TAF INFORMATION
METAR FOR MBGT
ADDS - METARS form results

(0334 UTC 17 June 2019)
Data provider http://aviationweather.gov/metar/data/
 
Forecast for: MBGT (TURKS ISLAND , BS)
Text: MBGT 162300Z 1700/1724 10014KT 9999 SCT018 SCT200
Forecast period: 0000 UTC 17 June 2019 to 0000 UTC 18 June 2019
Forecast type: FROM: standard forecast or significant change
Winds: from the E (100 degrees) at 16 MPH (14 knots; 7.2 m/s)
Visibility: 6 or more miles 10+ km)
Ceiling: at least 12,000 feet AGL
Clouds: scattered clouds at 1800 feet AGL
scattered clouds at 20000 feet AGL
Weather: no significant weather forecast for this period

 AIRPORT MAP

 RUNWAY INFORMATION
Runway 11 Runway length 6362 ft Runway width 151 ft
Runway elevation 11 ft Runway displaced threshold 797 ft Runway heading 104
Runway 29 Runway length 6362 ft Runway width 151 ft
Runway elevation 9 ft Runway displaced threshold 0 ft Runway heading 284

 AIRPORT FREQUENCIES
Type APP Name PROVO APP Frequency 126 MHZ
Type GND Name GND Frequency 121.9 MHZ
Type TWR Name MCCARTNEY Frequency 118.6 MHZ

 AIRPORT NEAR NAVIGATION AIDS
Type NDB Name Grand Turk Frequency 232 KHZ
Type VORTAC Name Grand Turk Frequency 114200 KHZ



Powered by Heron Airways VA. All Rights Reserved © 2009 [v2.6.2]